createdAt,value
2018-08-20T00:02:30.155Z,3.67
2018-08-20T00:05:01.017Z,3.57
2018-08-20T00:07:30.174Z,3.33
2018-08-20T00:09:59.621Z,3.20
2018-08-20T00:12:28.922Z,3.70
2018-08-20T00:14:58.085Z,3.53
2018-08-20T00:17:27.179Z,3.60
2018-08-20T00:19:56.887Z,3.00
2018-08-20T00:22:26.051Z,3.30
2018-08-20T00:25:07.575Z,3.60
2018-08-20T00:27:36.691Z,3.37
2018-08-20T00:30:07.434Z,3.50
2018-08-20T00:32:36.562Z,3.60
2018-08-20T00:35:05.847Z,3.67
2018-08-20T00:37:35.478Z,3.13
2018-08-20T00:40:04.988Z,3.10
2018-08-20T00:42:34.349Z,3.33
2018-08-20T00:45:05.357Z,3.27
2018-08-20T00:47:34.677Z,3.40
2018-08-20T00:50:04.781Z,3.07
2018-08-20T00:52:35.130Z,3.30
2018-08-20T00:55:05.402Z,3.20
2018-08-20T00:57:34.516Z,3.30
2018-08-20T01:00:04.663Z,3.70
2018-08-20T01:02:33.859Z,3.40
2018-08-20T01:05:03.222Z,3.13
2018-08-20T01:07:32.384Z,3.20
2018-08-20T01:10:01.615Z,3.40
2018-08-20T01:12:30.762Z,3.20
2018-08-20T01:15:00.027Z,3.70
2018-08-20T01:17:29.279Z,3.23
2018-08-20T01:19:58.370Z,3.23
2018-08-20T01:22:27.445Z,3.10
2018-08-20T01:24:57.148Z,3.03
2018-08-20T01:27:28.405Z,3.10
2018-08-20T01:29:57.598Z,3.17
2018-08-20T01:32:27.084Z,3.63
2018-08-20T01:35:06.328Z,3.47
2018-08-20T01:37:35.881Z,3.73
2018-08-20T01:40:05.222Z,3.50
2018-08-20T01:42:34.600Z,3.67
2018-08-20T01:45:04.200Z,3.70
2018-08-20T01:47:34.188Z,3.27
2018-08-20T01:50:03.279Z,3.10
2018-08-20T01:52:32.342Z,3.30
2018-08-20T01:55:01.768Z,3.13
2018-08-20T01:57:30.805Z,3.00
2018-08-20T02:00:00.954Z,3.60
2018-08-20T02:02:30.093Z,3.33
2018-08-20T02:04:59.355Z,3.33
2018-08-20T02:07:28.830Z,3.70
2018-08-20T02:09:58.029Z,3.40
2018-08-20T02:12:27.369Z,3.33
2018-08-20T02:14:57.205Z,3.67
2018-08-20T02:17:26.509Z,3.70
2018-08-20T02:19:55.930Z,3.80
2018-08-20T02:22:24.939Z,3.50
2018-08-20T02:24:54.250Z,3.67
2018-08-20T02:27:23.338Z,3.87
2018-08-20T02:29:52.367Z,4.00
2018-08-20T02:32:21.538Z,4.13
2018-08-20T02:34:51.203Z,4.27
2018-08-20T02:37:20.363Z,4.27
2018-08-20T02:39:49.436Z,4.70
2018-08-20T02:42:18.659Z,4.80
2018-08-20T02:44:47.838Z,5.13
2018-08-20T02:47:17.006Z,5.23
2018-08-20T02:49:46.155Z,5.43
2018-08-20T02:52:15.314Z,5.63
2018-08-20T02:54:44.535Z,6.30
2018-08-20T02:57:13.698Z,6.40
2018-08-20T02:59:42.823Z,6.43
2018-08-20T03:02:12.320Z,6.57
2018-08-20T03:04:41.482Z,6.40
2018-08-20T03:07:10.605Z,6.73
2018-08-20T03:09:40.099Z,6.73
2018-08-20T03:12:09.230Z,6.57
2018-08-20T03:14:38.441Z,7.33
2018-08-20T03:17:07.664Z,6.77
2018-08-20T03:19:36.916Z,7.00
2018-08-20T03:22:07.164Z,6.40
2018-08-20T03:24:36.273Z,7.03
2018-08-20T03:27:05.680Z,7.03
2018-08-20T03:29:34.985Z,7.00
2018-08-20T03:32:04.199Z,7.00
2018-08-20T03:34:33.859Z,7.90
2018-08-20T03:37:02.986Z,7.60
2018-08-20T03:39:32.125Z,7.90
2018-08-20T03:42:01.684Z,8.13
2018-08-20T03:44:31.578Z,7.63
2018-08-20T03:47:00.939Z,7.50
2018-08-20T03:49:30.348Z,8.60
2018-08-20T03:51:59.636Z,8.30
2018-08-20T03:54:28.765Z,8.17
2018-08-20T03:56:57.826Z,8.50
2018-08-20T03:59:33.847Z,9.80
2018-08-20T04:02:05.070Z,9.10
2018-08-20T04:04:34.226Z,8.77
2018-08-20T04:07:04.922Z,9.03
2018-08-20T04:09:34.435Z,8.90
2018-08-20T04:12:04.542Z,9.33
2018-08-20T04:14:33.725Z,9.50
2018-08-20T04:17:03.105Z,9.17
2018-08-20T04:19:32.182Z,8.90
2018-08-20T04:22:01.749Z,8.63
2018-08-20T04:24:30.902Z,9.50
2018-08-20T04:27:00.105Z,9.90
2018-08-20T04:29:29.322Z,8.70
2018-08-20T04:31:58.405Z,8.93
2018-08-20T04:34:29.034Z,10.30
2018-08-20T04:36:58.746Z,10.13
2018-08-20T04:39:28.090Z,9.50
2018-08-20T04:41:57.353Z,9.10
2018-08-20T04:44:27.062Z,11.13
2018-08-20T04:46:56.227Z,9.50
2018-08-20T04:49:26.552Z,9.87
2018-08-20T04:51:55.799Z,10.03
2018-08-20T04:54:25.405Z,10.30
2018-08-20T04:56:54.722Z,10.23
2018-08-20T04:59:24.255Z,10.83
2018-08-20T05:01:53.557Z,9.43
2018-08-20T05:04:23.856Z,10.33
2018-08-20T05:06:52.979Z,10.70
2018-08-20T05:09:22.044Z,10.17
2018-08-20T05:11:51.380Z,10.73
2018-08-20T05:14:20.483Z,11.57
2018-08-20T05:16:49.815Z,11.67
2018-08-20T05:19:19.112Z,11.60
2018-08-20T05:21:48.237Z,10.90
2018-08-20T05:24:17.411Z,11.70
2018-08-20T05:26:46.717Z,11.93
2018-08-20T05:29:15.945Z,11.70
2018-08-20T05:31:45.170Z,11.40
2018-08-20T05:34:14.318Z,10.60
2018-08-20T05:36:43.534Z,11.67
2018-08-20T05:39:13.378Z,12.97
2018-08-20T05:41:43.486Z,12.40
2018-08-20T05:44:12.572Z,13.30
2018-08-20T05:46:41.972Z,12.03
2018-08-20T05:49:11.361Z,11.40
2018-08-20T05:51:40.589Z,12.33
2018-08-20T05:54:10.584Z,13.87
2018-08-20T05:56:39.666Z,13.37
2018-08-20T05:59:08.845Z,13.40
2018-08-20T06:01:38.052Z,13.30
2018-08-20T06:04:08.207Z,14.00
2018-08-20T06:06:37.435Z,13.10
2018-08-20T06:09:08.445Z,13.67
2018-08-20T06:11:37.632Z,13.97
2018-08-20T06:14:06.871Z,13.63
2018-08-20T06:16:36.215Z,14.23
2018-08-20T06:19:05.746Z,16.13
2018-08-20T06:21:34.866Z,16.57
2018-08-20T06:24:04.137Z,17.80
2018-08-20T06:26:33.312Z,17.63
2018-08-20T06:29:02.421Z,17.43
2018-08-20T06:31:32.387Z,17.90
2018-08-20T06:34:01.537Z,17.90
2018-08-20T06:36:31.293Z,17.63
2018-08-20T06:39:00.728Z,17.50
2018-08-20T06:41:29.921Z,16.87
2018-08-20T06:43:59.083Z,16.93
2018-08-20T06:46:28.136Z,17.70
2018-08-20T06:48:57.585Z,17.30
2018-08-20T06:51:26.854Z,16.60
2018-08-20T06:53:56.377Z,18.07
2018-08-20T06:56:25.622Z,16.33
2018-08-20T06:58:54.828Z,16.77
2018-08-20T07:01:24.206Z,14.73
2018-08-20T07:03:53.250Z,15.97
2018-08-20T07:06:22.585Z,16.90
2018-08-20T07:08:51.777Z,18.80
2018-08-20T07:11:20.948Z,18.23
2018-08-20T07:13:50.189Z,17.07
2018-08-20T07:16:19.321Z,18.57
2018-08-20T07:18:48.657Z,16.97
2018-08-20T07:21:17.934Z,15.83
2018-08-20T07:23:47.071Z,17.90
2018-08-20T07:26:16.362Z,17.10
2018-08-20T07:28:45.660Z,17.60
2018-08-20T07:31:14.760Z,16.10
2018-08-20T07:33:44.382Z,17.87
2018-08-20T07:36:13.474Z,17.67
2018-08-20T07:38:43.014Z,17.27
2018-08-20T07:41:12.324Z,17.47
2018-08-20T07:43:41.717Z,16.63
2018-08-20T07:46:10.981Z,16.93
2018-08-20T07:48:40.354Z,14.93
2018-08-20T07:51:10.474Z,15.93
2018-08-20T07:53:39.671Z,16.37
2018-08-20T07:56:09.034Z,16.77
2018-08-20T07:58:38.164Z,15.43
2018-08-20T08:01:07.447Z,17.57
2018-08-20T08:03:36.679Z,17.27
2018-08-20T08:06:06.146Z,17.93
2018-08-20T08:08:35.985Z,18.73
2018-08-20T08:11:05.218Z,18.57
2018-08-20T08:13:34.623Z,18.93
2018-08-20T08:16:03.896Z,17.37
2018-08-20T08:18:33.527Z,18.17
2018-08-20T08:21:02.726Z,19.20
2018-08-20T08:23:32.364Z,18.87
2018-08-20T08:26:01.607Z,19.53
2018-08-20T08:28:30.809Z,19.53
2018-08-20T08:31:00.220Z,19.60
2018-08-20T08:33:29.544Z,18.70
2018-08-20T08:35:58.610Z,19.13
2018-08-20T08:38:27.728Z,17.77
2018-08-20T08:40:57.024Z,16.77
2018-08-20T08:43:26.172Z,18.60
2018-08-20T08:45:55.422Z,17.97
2018-08-20T08:48:24.730Z,16.37
2018-08-20T08:50:54.059Z,16.10
2018-08-20T08:53:23.644Z,18.77
2018-08-20T08:55:52.811Z,17.33
2018-08-20T08:58:22.115Z,17.57
2018-08-20T09:00:51.160Z,17.20
2018-08-20T09:03:20.513Z,16.50
2018-08-20T09:05:49.640Z,17.23
2018-08-20T09:08:18.993Z,16.17
2018-08-20T09:10:48.158Z,17.63
2018-08-20T09:13:17.450Z,18.40
2018-08-20T09:15:46.566Z,18.10
2018-08-20T09:18:16.129Z,17.47
2018-08-20T09:20:45.383Z,16.87
2018-08-20T09:23:14.512Z,17.00
2018-08-20T09:25:43.659Z,18.40
2018-08-20T09:28:13.081Z,17.27
2018-08-20T09:30:42.364Z,18.73
2018-08-20T09:33:11.681Z,17.23
2018-08-20T09:35:40.775Z,18.33
2018-08-20T09:38:10.061Z,18.70
2018-08-20T09:40:39.307Z,18.07
2018-08-20T09:43:08.363Z,18.47
2018-08-20T09:45:38.256Z,17.63
2018-08-20T09:48:07.875Z,19.07
2018-08-20T09:50:37.276Z,18.43
2018-08-20T09:53:06.498Z,17.73
2018-08-20T09:55:36.488Z,18.43
2018-08-20T09:58:05.668Z,16.80
2018-08-20T10:00:40.565Z,15.03
2018-08-20T10:03:10.445Z,16.43
2018-08-20T10:05:39.547Z,17.70
2018-08-20T10:08:09.023Z,16.07
2018-08-20T10:10:38.349Z,14.70
2018-08-20T10:13:08.207Z,17.77
2018-08-20T10:15:37.785Z,18.37
2018-08-20T10:18:07.820Z,17.27
2018-08-20T10:20:37.051Z,16.87
2018-08-20T10:23:06.346Z,16.30
2018-08-20T10:25:35.940Z,15.40
2018-08-20T10:28:05.181Z,17.67
2018-08-20T10:30:34.310Z,16.77
2018-08-20T10:33:03.733Z,17.83
2018-08-20T10:35:32.876Z,15.50
2018-08-20T10:38:02.160Z,16.30
2018-08-20T10:40:31.285Z,14.63
2018-08-20T10:43:00.596Z,15.60
2018-08-20T10:46:32.616Z,15.73
2018-08-20T10:49:01.626Z,15.53
2018-08-20T10:51:30.694Z,13.05
2018-08-20T10:53:59.832Z,13.62
2018-08-20T10:56:29.150Z,13.43
2018-08-20T10:58:58.295Z,15.23
2018-08-20T11:01:27.530Z,13.90
2018-08-20T11:03:57.924Z,14.87
2018-08-20T11:06:28.423Z,14.90
2018-08-20T11:08:59.169Z,14.70
2018-08-20T11:11:28.468Z,15.43
2018-08-20T11:13:57.496Z,13.63
2018-08-20T11:16:26.878Z,14.30
2018-08-20T11:18:56.083Z,13.98
2018-08-20T11:21:25.154Z,14.13
2018-08-20T11:23:54.435Z,15.15
2018-08-20T11:26:23.669Z,14.13
2018-08-20T11:28:53.181Z,14.00
2018-08-20T11:31:22.381Z,13.38
2018-08-20T11:33:51.571Z,13.15
2018-08-20T11:36:20.810Z,13.43
2018-08-20T11:38:50.265Z,12.80
2018-08-20T11:41:19.364Z,13.08
2018-08-20T11:43:48.581Z,13.22
2018-08-20T11:46:17.629Z,12.58
2018-08-20T11:48:46.771Z,14.55
2018-08-20T11:51:15.921Z,12.73
2018-08-20T11:53:45.336Z,12.30
2018-08-20T11:56:14.546Z,12.78
2018-08-20T11:58:43.628Z,12.00
2018-08-20T12:01:12.713Z,11.25
2018-08-20T12:03:41.968Z,11.15
2018-08-20T12:06:11.132Z,10.88
2018-08-20T12:08:40.404Z,11.78
2018-08-20T12:11:09.633Z,12.18
2018-08-20T12:13:39.620Z,12.00
2018-08-20T12:16:09.046Z,10.88
2018-08-20T12:18:38.613Z,11.85
2018-08-20T12:21:08.523Z,11.80
2018-08-20T12:23:37.972Z,11.33
2018-08-20T12:26:07.650Z,11.00
2018-08-20T12:28:36.756Z,10.05
2018-08-20T12:31:06.005Z,11.35
2018-08-20T12:33:35.099Z,10.95
2018-08-20T12:36:04.310Z,10.55
2018-08-20T12:38:33.384Z,10.98
2018-08-20T12:41:03.205Z,10.70
2018-08-20T12:43:32.492Z,9.88
2018-08-20T12:46:02.171Z,12.68
2018-08-20T12:48:31.277Z,12.00
2018-08-20T12:51:00.804Z,11.65
2018-08-20T12:53:30.034Z,12.25
2018-08-20T12:55:59.278Z,11.25
2018-08-20T12:58:28.375Z,12.33
2018-08-20T13:00:57.707Z,11.60
2018-08-20T13:03:26.841Z,11.60
2018-08-20T13:05:56.612Z,10.78
2018-08-20T13:08:25.780Z,10.65
2018-08-20T13:10:55.029Z,10.03
2018-08-20T13:13:24.208Z,10.32
2018-08-20T13:15:53.536Z,11.97
2018-08-20T13:18:22.660Z,11.83
2018-08-20T13:20:51.908Z,10.72
2018-08-20T13:23:20.950Z,10.82
2018-08-20T13:25:50.003Z,11.73
2018-08-20T13:28:19.968Z,13.10
2018-08-20T13:30:49.407Z,12.00
2018-08-20T13:33:18.772Z,11.12
2018-08-20T13:35:48.799Z,11.25
2018-08-20T13:38:18.005Z,11.10
2018-08-20T13:40:47.105Z,11.80
2018-08-20T13:43:16.236Z,10.25
2018-08-20T13:45:45.333Z,9.78
2018-08-20T13:48:14.830Z,10.45
2018-08-20T13:50:43.891Z,10.50
2018-08-20T13:53:13.781Z,11.68
2018-08-20T13:55:43.274Z,12.43
2018-08-20T13:58:13.134Z,13.48
2018-08-20T14:00:42.217Z,12.90
2018-08-20T14:03:11.359Z,13.13
2018-08-20T14:05:40.539Z,15.20
2018-08-20T14:08:09.739Z,14.38
2018-08-20T14:10:39.227Z,15.55
2018-08-20T14:13:08.457Z,14.85
2018-08-20T14:15:37.630Z,15.08
2018-08-20T14:18:06.900Z,14.10
2018-08-20T14:20:36.535Z,13.78
2018-08-20T14:23:05.914Z,12.90
2018-08-20T14:25:35.625Z,13.75
2018-08-20T14:28:04.929Z,13.95
2018-08-20T14:30:34.170Z,12.78
2018-08-20T14:33:03.358Z,11.93
2018-08-20T14:35:32.421Z,11.90
2018-08-20T14:38:01.920Z,12.98
2018-08-20T14:40:31.175Z,11.38
2018-08-20T14:43:00.534Z,11.57
2018-08-20T14:45:35.059Z,9.73
2018-08-20T14:48:04.427Z,9.48
2018-08-20T14:50:33.559Z,9.23
2018-08-20T14:53:02.801Z,9.03
2018-08-20T14:55:32.058Z,9.68
2018-08-20T14:58:01.151Z,9.75
2018-08-20T15:00:30.577Z,10.82
2018-08-20T15:02:59.634Z,10.50
2018-08-20T15:05:28.801Z,9.83
2018-08-20T15:07:58.165Z,9.73
2018-08-20T15:10:27.256Z,9.63
2018-08-20T15:12:56.351Z,9.33
2018-08-20T15:15:25.598Z,9.58
2018-08-20T15:17:54.931Z,9.13
2018-08-20T15:20:24.427Z,9.70
2018-08-20T15:22:53.739Z,8.97
2018-08-20T15:25:23.105Z,9.53
2018-08-20T15:27:52.628Z,9.25
2018-08-20T15:31:05.227Z,8.67
2018-08-20T15:33:35.110Z,8.18
2018-08-20T15:36:04.497Z,8.70
2018-08-20T15:38:33.659Z,8.40
2018-08-20T15:41:03.882Z,8.30
2018-08-20T15:43:33.173Z,7.93
2018-08-20T15:46:02.436Z,7.77
2018-08-20T15:48:31.873Z,8.93
2018-08-20T15:51:01.314Z,8.70
2018-08-20T15:53:31.245Z,7.30
2018-08-20T15:56:00.277Z,7.47
2018-08-20T15:58:29.648Z,7.37
2018-08-20T16:00:58.810Z,8.53
2018-08-20T16:03:27.921Z,7.50
2018-08-20T16:05:57.110Z,7.42
2018-08-20T16:08:26.624Z,7.92
2018-08-20T16:10:55.769Z,7.43
2018-08-20T16:13:26.402Z,6.90
2018-08-20T16:15:55.673Z,7.03
2018-08-20T16:18:25.267Z,7.00
2018-08-20T16:20:54.377Z,6.10
2018-08-20T16:23:23.788Z,7.20
2018-08-20T16:25:53.707Z,7.50
2018-08-20T16:28:23.599Z,7.20
2018-08-20T16:30:53.384Z,8.23
2018-08-20T16:33:23.559Z,6.77
2018-08-20T16:35:53.024Z,8.33
2018-08-20T16:38:22.193Z,8.40
2018-08-20T16:40:51.361Z,8.30
2018-08-20T16:43:20.490Z,7.33
2018-08-20T16:45:49.688Z,6.73
2018-08-20T16:48:18.840Z,7.00
2018-08-20T16:50:48.120Z,5.80
2018-08-20T16:53:17.509Z,5.70
2018-08-20T16:55:46.825Z,5.40
2018-08-20T16:58:16.041Z,5.33
2018-08-20T17:00:45.567Z,5.00
2018-08-20T17:03:14.851Z,4.62
2018-08-20T17:05:48.137Z,4.30
2018-08-20T17:08:33.982Z,4.60
2018-08-20T17:11:03.315Z,4.30
2018-08-20T17:13:32.495Z,4.40
2018-08-20T17:16:01.691Z,4.13
2018-08-20T17:18:31.012Z,3.90
2018-08-20T17:21:00.185Z,4.00
2018-08-20T17:23:31.650Z,4.37
2018-08-20T17:26:00.822Z,3.37
2018-08-20T17:28:30.046Z,3.90
2018-08-20T17:31:03.141Z,3.93
2018-08-20T17:33:34.059Z,3.53
2018-08-20T17:36:04.308Z,4.60
2018-08-20T17:38:33.656Z,3.70
2018-08-20T17:41:02.874Z,3.53
2018-08-20T17:43:32.183Z,3.50
2018-08-20T17:46:01.441Z,4.30
2018-08-20T17:48:33.254Z,3.90
2018-08-20T17:51:02.589Z,3.90
2018-08-20T17:53:43.002Z,4.30
2018-08-20T17:56:12.275Z,4.10
2018-08-20T17:58:41.349Z,3.80
2018-08-20T18:01:10.442Z,3.67
2018-08-20T18:03:39.721Z,3.80
2018-08-20T18:06:09.676Z,4.00
2018-08-20T18:08:38.913Z,3.37
2018-08-20T18:11:08.519Z,2.80
2018-08-20T18:13:41.585Z,3.00
2018-08-20T18:16:12.265Z,2.70
2018-08-20T18:18:42.743Z,2.43
2018-08-20T18:21:11.974Z,2.80
2018-08-20T18:23:41.209Z,2.80
2018-08-20T18:26:10.629Z,2.87
2018-08-20T18:28:49.675Z,2.80
2018-08-20T18:31:23.677Z,2.60
2018-08-20T18:33:53.509Z,3.00
2018-08-20T18:36:24.147Z,2.70
2018-08-20T18:38:55.424Z,2.70
2018-08-20T18:42:33.280Z,2.70
2018-08-20T18:45:02.750Z,2.97
2018-08-20T18:47:31.902Z,2.50
2018-08-20T18:50:01.130Z,2.70
2018-08-20T18:52:31.155Z,3.00
2018-08-20T18:55:00.829Z,2.80
2018-08-20T18:57:32.953Z,2.90
2018-08-20T19:00:04.158Z,3.00
2018-08-20T19:02:42.856Z,3.00
2018-08-20T19:05:14.738Z,3.03
2018-08-20T19:07:44.752Z,2.63
2018-08-20T19:10:33.312Z,2.90
2018-08-20T19:13:03.129Z,3.17
2018-08-20T19:15:40.434Z,2.93
2018-08-20T19:18:11.922Z,3.43
2018-08-20T19:20:42.096Z,3.00
2018-08-20T19:23:11.276Z,3.17
2018-08-20T19:25:40.553Z,3.10
2018-08-20T19:28:15.061Z,3.00
2018-08-20T19:30:44.413Z,3.07
2018-08-20T19:33:20.771Z,2.97
2018-08-20T19:35:50.022Z,3.10
2018-08-20T19:38:19.594Z,3.30
2018-08-20T19:40:58.474Z,3.00
2018-08-20T19:43:31.809Z,3.00
2018-08-20T19:46:01.172Z,2.80
2018-08-20T19:48:30.254Z,3.20
2018-08-20T19:50:59.567Z,3.20
2018-08-20T19:53:28.869Z,3.20
2018-08-20T19:55:58.078Z,3.30
2018-08-20T19:58:33.655Z,3.30
2018-08-20T20:01:09.064Z,3.00
2018-08-20T20:03:42.603Z,3.47
2018-08-20T20:06:11.889Z,3.67
2018-08-20T20:08:41.322Z,3.73
2018-08-20T20:11:19.846Z,3.50
2018-08-20T20:13:52.611Z,3.67
2018-08-20T20:16:22.301Z,3.60
2018-08-20T20:18:52.271Z,4.00
2018-08-20T20:21:22.049Z,4.03
2018-08-20T20:23:51.292Z,3.60
2018-08-20T20:26:20.458Z,3.53
2018-08-20T20:28:50.041Z,3.80
2018-08-20T20:31:19.335Z,4.00
2018-08-20T20:33:48.521Z,4.53
2018-08-20T20:36:24.611Z,3.90
2018-08-20T20:38:54.749Z,3.67
2018-08-20T20:41:24.312Z,3.90
2018-08-20T20:43:54.321Z,4.17
2018-08-20T20:46:24.139Z,4.93
2018-08-20T20:48:53.175Z,5.60
2018-08-20T20:51:22.538Z,5.17
2018-08-20T20:53:51.599Z,5.03
2018-08-20T20:56:20.932Z,5.03
2018-08-20T20:58:50.024Z,4.90
2018-08-20T21:01:19.377Z,4.87
2018-08-20T21:03:48.797Z,4.40
2018-08-20T21:06:18.203Z,4.43
2018-08-20T21:08:48.341Z,4.73
2018-08-20T21:11:18.915Z,4.30
2018-08-20T21:13:48.390Z,5.20
2018-08-20T21:16:20.088Z,4.67
2018-08-20T21:18:57.252Z,4.50
2018-08-20T21:21:27.264Z,4.57
2018-08-20T21:23:57.513Z,4.50
2018-08-20T21:26:26.722Z,4.27
2018-08-20T21:28:56.782Z,4.23
2018-08-20T21:31:27.184Z,4.50
2018-08-20T21:33:58.481Z,4.53
2018-08-20T21:36:27.784Z,4.63
2018-08-20T21:38:57.066Z,4.20
2018-08-20T21:41:27.638Z,4.30
2018-08-20T21:43:57.424Z,4.70
2018-08-20T21:46:26.765Z,4.87
2018-08-20T21:48:55.908Z,4.60
2018-08-20T21:51:28.840Z,5.10
2018-08-20T21:53:58.497Z,4.73
2018-08-20T21:56:38.753Z,4.50
2018-08-20T21:59:08.217Z,5.43
2018-08-20T22:01:37.316Z,4.50
2018-08-20T22:04:11.998Z,5.20
2018-08-20T22:06:41.164Z,5.20
2018-08-20T22:09:10.361Z,5.90
2018-08-20T22:11:39.506Z,5.20
2018-08-20T22:14:08.572Z,5.70
2018-08-20T22:16:37.683Z,5.13
2018-08-20T22:19:06.810Z,5.20
2018-08-20T22:21:36.146Z,5.40
2018-08-20T22:24:05.377Z,5.67
2018-08-20T22:26:34.544Z,5.83
2018-08-20T22:29:03.773Z,6.13
2018-08-20T22:31:33.114Z,6.10
2018-08-20T22:34:05.535Z,6.93
2018-08-20T22:36:34.676Z,6.30
2018-08-20T22:39:05.047Z,6.37
2018-08-20T22:41:34.275Z,6.73
2018-08-20T22:44:03.327Z,7.57
2018-08-20T22:46:32.512Z,6.70
2018-08-20T22:49:01.932Z,6.63
2018-08-20T22:51:31.060Z,7.23
2018-08-20T22:54:01.508Z,6.77
2018-08-20T22:56:32.489Z,6.53
2018-08-20T22:59:07.413Z,6.40
2018-08-20T23:01:36.630Z,7.40
2018-08-20T23:04:06.136Z,6.60
2018-08-20T23:06:35.332Z,6.77
2018-08-20T23:09:21.168Z,6.70
2018-08-20T23:11:50.387Z,6.07
2018-08-20T23:14:19.727Z,6.10
2018-08-20T23:16:50.168Z,5.90
2018-08-20T23:19:19.478Z,5.77
2018-08-20T23:21:49.481Z,5.60
2018-08-20T23:24:18.647Z,6.10
2018-08-20T23:26:47.767Z,5.87
2018-08-20T23:29:16.972Z,5.70
2018-08-20T23:31:46.501Z,5.50
2018-08-20T23:34:16.584Z,5.57
2018-08-20T23:36:45.678Z,5.70
2018-08-20T23:39:16.922Z,5.20
2018-08-20T23:41:46.801Z,5.53
2018-08-20T23:44:16.783Z,5.13
2018-08-20T23:46:49.484Z,5.00
2018-08-20T23:49:18.629Z,5.47
2018-08-20T23:51:48.445Z,5.23
2018-08-20T23:54:17.682Z,5.10
2018-08-20T23:56:47.045Z,4.77
2018-08-20T23:59:16.370Z,5.43
